createdAt,value
2018-12-07T00:00:31.853Z,100728.74
2018-12-07T00:01:08.751Z,100731.70
2018-12-07T00:01:46.528Z,100729.00
2018-12-07T00:02:23.452Z,100735.20
2018-12-07T00:03:01.215Z,100736.81
2018-12-07T00:03:38.126Z,100732.50
2018-12-07T00:04:14.913Z,100736.00
2018-12-07T00:04:51.885Z,100738.67
2018-12-07T00:05:28.645Z,100739.48
2018-12-07T00:06:06.242Z,100738.66
2018-12-07T00:06:45.368Z,100744.30
2018-12-07T00:07:22.247Z,100743.48
2018-12-07T00:08:02.117Z,100742.66
2018-12-07T00:08:38.925Z,100747.50
2018-12-07T00:09:15.736Z,100743.71
2018-12-07T00:09:52.526Z,100748.55
2018-12-07T00:10:29.507Z,100753.92
2018-12-07T00:11:06.553Z,100756.07
2018-12-07T00:11:44.237Z,100752.33
2018-12-07T00:12:21.517Z,100753.97
2018-12-07T00:12:58.470Z,100761.22
2018-12-07T00:13:35.243Z,100759.86
2018-12-07T00:14:13.274Z,100767.39
2018-12-07T00:14:50.457Z,100761.73
2018-12-07T00:15:27.302Z,100771.14
2018-12-07T00:16:07.005Z,100773.28
2018-12-07T00:16:45.989Z,100773.28
2018-12-07T00:17:24.475Z,100775.42
2018-12-07T00:18:01.267Z,100778.63
2018-12-07T00:18:38.544Z,100780.50
2018-12-07T00:19:15.299Z,100776.73
2018-12-07T00:19:52.095Z,100779.95
2018-12-07T00:20:29.477Z,100782.64
2018-12-07T00:21:06.304Z,100783.98
2018-12-07T00:21:43.279Z,100783.45
2018-12-07T00:22:20.087Z,100790.45
2018-12-07T00:22:56.994Z,100785.33
2018-12-07T00:23:33.849Z,100788.28
2018-12-07T00:24:10.683Z,100784.50
2018-12-07T00:24:47.540Z,100789.89
2018-12-07T00:25:24.887Z,100785.03
2018-12-07T00:26:02.841Z,100786.37
2018-12-07T00:26:39.730Z,100781.80
2018-12-07T00:27:16.616Z,100790.67
2018-12-07T00:27:53.581Z,100791.20
2018-12-07T00:28:30.377Z,100793.89
2018-12-07T00:29:07.349Z,100795.50
2018-12-07T00:29:44.313Z,100798.45
2018-12-07T00:30:22.073Z,100789.55
2018-12-07T00:30:58.980Z,100800.05
2018-12-07T00:31:35.891Z,100800.05
2018-12-07T00:32:12.697Z,100798.69
2018-12-07T00:32:49.550Z,100805.68
2018-12-07T00:33:26.465Z,100808.09
2018-12-07T00:34:03.313Z,100812.14
2018-12-07T00:34:40.173Z,100812.41
2018-12-07T00:35:17.066Z,100808.62
2018-12-07T00:35:53.929Z,100815.63
2018-12-07T00:36:30.819Z,100813.19
2018-12-07T00:37:07.803Z,100812.11
2018-12-07T00:37:44.632Z,100813.72
2018-12-07T00:38:21.410Z,100817.47
2018-12-07T00:38:58.161Z,100818.02
2018-12-07T00:39:35.241Z,100823.13
2018-12-07T00:40:12.209Z,100817.19
2018-12-07T00:40:49.124Z,100825.54
2018-12-07T00:41:25.906Z,100827.95
2018-12-07T00:42:02.793Z,100827.69
2018-12-07T00:42:39.666Z,100828.23
2018-12-07T00:43:16.454Z,100828.49
2018-12-07T00:43:53.385Z,100829.56
2018-12-07T00:44:31.218Z,100826.34
2018-12-07T00:45:08.456Z,100827.41
2018-12-07T00:45:45.300Z,100829.30
2018-12-07T00:46:22.197Z,100834.41
2018-12-07T00:46:59.324Z,100838.70
2018-12-07T00:47:36.197Z,100836.27
2018-12-07T00:48:14.787Z,100835.19
2018-12-07T00:48:51.607Z,100838.72
2018-12-07T00:49:28.483Z,100840.87
2018-12-07T00:50:05.399Z,100840.33
2018-12-07T00:50:42.213Z,100838.17
2018-12-07T00:51:21.261Z,100838.44
2018-12-07T00:51:58.127Z,100839.24
2018-12-07T00:52:35.004Z,100841.39
2018-12-07T00:53:11.766Z,100845.70
2018-12-07T00:53:48.662Z,100843.30
2018-12-07T00:54:25.585Z,100841.95
2018-12-07T00:55:02.523Z,100846.80
2018-12-07T00:55:44.327Z,100840.59
2018-12-07T00:56:21.093Z,100846.52
2018-12-07T00:56:57.983Z,100841.13
2018-12-07T00:57:34.859Z,100846.23
2018-12-07T00:58:11.714Z,100845.67
2018-12-07T00:59:02.636Z,100848.08
2018-12-07T00:59:39.573Z,100840.78
2018-12-07T01:00:16.452Z,100844.26
2018-12-07T01:00:53.349Z,100843.97
2018-12-07T01:01:30.330Z,100845.30
2018-12-07T01:02:07.242Z,100849.06
2018-12-07T01:02:44.097Z,100846.08
2018-12-07T01:03:20.994Z,100847.98
2018-12-07T01:03:57.839Z,100845.80
2018-12-07T01:04:35.783Z,100846.33
2018-12-07T01:05:12.558Z,100852.23
2018-12-07T01:05:50.079Z,100851.41
2018-12-07T01:06:26.933Z,100855.43
2018-12-07T01:07:03.881Z,100856.76
2018-12-07T01:07:40.834Z,100854.84
2018-12-07T01:08:17.715Z,100855.36
2018-12-07T01:08:54.520Z,100862.08
2018-12-07T01:09:31.473Z,100860.17
2018-12-07T01:10:08.724Z,100867.43
2018-12-07T01:10:45.540Z,100867.14
2018-12-07T01:11:22.567Z,100869.56
2018-12-07T01:11:59.429Z,100870.66
2018-12-07T01:12:36.233Z,100869.83
2018-12-07T01:13:13.080Z,100868.19
2018-12-07T01:13:49.891Z,100881.11
2018-12-07T01:14:26.740Z,100880.28
2018-12-07T01:15:03.766Z,100881.63
2018-12-07T01:15:40.626Z,100883.21
2018-12-07T01:16:17.463Z,100888.04
2018-12-07T01:16:55.480Z,100888.02
2018-12-07T01:17:32.411Z,100882.59
2018-12-07T01:18:09.325Z,100882.81
2018-12-07T01:18:46.256Z,100888.70
2018-12-07T01:19:23.155Z,100883.83
2018-12-07T01:20:00.140Z,100884.63
2018-12-07T01:20:37.123Z,100886.76
2018-12-07T01:21:14.052Z,100887.53
2018-12-07T01:21:50.895Z,100886.70
2018-12-07T01:22:28.343Z,100886.92
2018-12-07T01:23:05.338Z,100890.95
2018-12-07T01:23:42.208Z,100893.07
2018-12-07T01:24:19.166Z,100880.09
2018-12-07T01:24:56.057Z,100895.48
2018-12-07T01:25:32.996Z,100894.13
2018-12-07T01:26:09.911Z,100889.54
2018-12-07T01:26:46.843Z,100893.84
2018-12-07T01:27:23.859Z,100887.90
2018-12-07T01:28:00.678Z,100887.06
2018-12-07T01:28:37.601Z,100890.83
2018-12-07T01:29:14.458Z,100883.23
2018-12-07T01:29:51.311Z,100891.88
2018-12-07T01:30:28.211Z,100880.02
2018-12-07T01:31:05.153Z,100885.14
2018-12-07T01:31:42.038Z,100883.20
2018-12-07T01:32:18.831Z,100884.78
2018-12-07T01:32:55.576Z,100890.11
2018-12-07T01:33:32.356Z,100883.33
2018-12-07T01:34:09.288Z,100890.56
2018-12-07T01:34:46.206Z,100886.51
2018-12-07T01:35:22.973Z,100885.45
2018-12-07T01:35:59.728Z,100887.64
2018-12-07T01:36:36.789Z,100885.19
2018-12-07T01:37:13.606Z,100887.38
2018-12-07T01:37:50.442Z,100886.73
2018-12-07T01:38:27.303Z,100885.67
2018-12-07T01:39:04.957Z,100885.70
2018-12-07T01:39:41.923Z,100886.22
2018-12-07T01:40:19.920Z,100889.33
2018-12-07T01:40:56.918Z,100883.52
2018-12-07T01:41:33.703Z,100886.94
2018-12-07T01:42:10.499Z,100888.47
2018-12-07T01:42:47.378Z,100887.84
2018-12-07T01:43:24.249Z,100888.06
2018-12-07T01:44:01.139Z,100882.94
2018-12-07T01:44:38.021Z,100881.77
2018-12-07T01:45:14.908Z,100882.48
2018-12-07T01:45:51.887Z,100888.35
2018-12-07T01:46:28.620Z,100887.68
2018-12-07T01:47:05.554Z,100882.27
2018-12-07T01:47:47.440Z,100877.37
2018-12-07T01:48:24.472Z,100883.28
2018-12-07T01:49:01.386Z,100873.77
2018-12-07T01:49:38.321Z,100880.82
2018-12-07T01:50:15.350Z,100876.23
2018-12-07T01:50:52.140Z,100873.22
2018-12-07T01:51:28.957Z,100879.12
2018-12-07T01:52:05.736Z,100877.47
2018-12-07T01:52:42.630Z,100871.02
2018-12-07T01:53:19.538Z,100875.92
2018-12-07T01:53:56.279Z,100866.05
2018-12-07T01:54:33.232Z,100871.50
2018-12-07T01:55:10.111Z,100865.37
2018-12-07T01:55:47.075Z,100875.26
2018-12-07T01:56:24.843Z,100869.80
2018-12-07T01:57:01.770Z,100867.61
2018-12-07T01:57:38.617Z,100875.08
2018-12-07T01:58:15.473Z,100869.35
2018-12-07T01:58:52.338Z,100872.56
2018-12-07T02:00:35.120Z,100869.27
2018-12-07T02:01:12.032Z,100867.77
2018-12-07T02:01:48.964Z,100873.12
2018-12-07T02:02:26.446Z,100871.72
2018-12-07T02:03:04.174Z,100864.11
2018-12-07T02:03:40.974Z,100865.41
2018-12-07T02:04:17.848Z,100863.77
2018-12-07T02:04:54.672Z,100865.11
2018-12-07T02:05:31.433Z,100865.06
2018-12-07T02:06:08.336Z,100867.73
2018-12-07T02:06:45.225Z,100867.13
2018-12-07T02:07:31.294Z,100863.59
2018-12-07T02:08:08.256Z,100866.81
2018-12-07T02:08:46.040Z,100867.81
2018-12-07T02:09:23.869Z,100872.68
2018-12-07T02:10:00.844Z,100868.56
2018-12-07T02:10:37.723Z,100857.11
2018-12-07T02:11:14.713Z,100867.06
2018-12-07T02:11:51.602Z,100866.56
2018-12-07T02:12:29.455Z,100873.28
2018-12-07T02:13:06.167Z,100868.67
2018-12-07T02:13:43.107Z,100866.31
2018-12-07T02:14:19.954Z,100863.85
2018-12-07T02:14:56.844Z,100866.56
2018-12-07T02:15:35.149Z,100867.66
2018-12-07T02:16:12.078Z,100868.41
2018-12-07T02:16:49.013Z,100871.37
2018-12-07T02:17:25.933Z,100875.09
2018-12-07T02:18:05.927Z,100869.97
2018-12-07T02:18:42.733Z,100871.27
2018-12-07T02:19:19.743Z,100865.66
2018-12-07T02:19:56.581Z,100871.52
2018-12-07T02:20:33.492Z,100865.01
2018-12-07T02:21:10.497Z,100862.34
2018-12-07T02:21:47.277Z,100863.84
2018-12-07T02:22:25.041Z,100864.09
2018-12-07T02:23:01.884Z,100864.59
2018-12-07T02:23:38.819Z,100864.28
2018-12-07T02:24:15.676Z,100862.66
2018-12-07T02:24:55.456Z,100865.62
2018-12-07T02:25:38.373Z,100863.41
2018-12-07T02:26:15.178Z,100863.41
2018-12-07T02:26:52.003Z,100859.85
2018-12-07T02:27:31.075Z,100862.86
2018-12-07T02:28:08.068Z,100872.03
2018-12-07T02:28:44.921Z,100864.96
2018-12-07T02:29:21.920Z,100866.02
2018-12-07T02:29:59.611Z,100865.77
2018-12-07T02:30:36.362Z,100863.61
2018-12-07T02:31:13.320Z,100860.35
2018-12-07T02:31:50.132Z,100857.39
2018-12-07T02:32:27.255Z,100865.66
2018-12-07T02:33:04.155Z,100866.96
2018-12-07T02:33:40.949Z,100857.84
2018-12-07T02:34:18.958Z,100853.83
2018-12-07T02:34:55.837Z,100859.64
2018-12-07T02:35:32.880Z,100864.20
2018-12-07T02:36:09.675Z,100859.28
2018-12-07T02:36:47.634Z,100858.17
2018-12-07T02:37:24.696Z,100859.53
2018-12-07T02:38:01.530Z,100863.02
2018-12-07T02:38:39.521Z,100852.12
2018-12-07T02:39:17.305Z,100859.41
2018-12-07T02:39:54.089Z,100862.11
2018-12-07T02:40:31.037Z,100861.31
2018-12-07T02:41:08.721Z,100862.05
2018-12-07T02:41:45.449Z,100864.52
2018-12-07T02:42:22.333Z,100859.90
2018-12-07T02:42:59.164Z,100863.91
2018-12-07T02:43:37.093Z,100860.34
2018-12-07T02:44:13.902Z,100866.62
2018-12-07T02:44:50.643Z,100864.16
2018-12-07T02:45:27.541Z,100860.89
2018-12-07T02:46:04.406Z,100869.22
2018-12-07T02:46:41.457Z,100867.61
2018-12-07T02:47:18.308Z,100869.58
2018-12-07T02:47:55.179Z,100865.77
2018-12-07T02:48:31.941Z,100869.52
2018-12-07T02:49:08.844Z,100871.07
2018-12-07T02:49:45.719Z,100873.48
2018-12-07T02:50:22.602Z,100868.61
2018-12-07T02:50:59.532Z,100873.70
2018-12-07T02:51:36.358Z,100869.63
2018-12-07T02:52:14.158Z,100865.57
2018-12-07T02:52:51.108Z,100868.53
2018-12-07T02:53:28.062Z,100863.33
2018-12-07T02:54:05.810Z,100867.89
2018-12-07T02:54:42.699Z,100866.48
2018-12-07T02:55:19.568Z,100869.94
2018-12-07T02:55:56.468Z,100865.62
2018-12-07T02:56:35.189Z,100867.47
2018-12-07T02:57:12.024Z,100864.52
2018-12-07T02:57:48.923Z,100863.41
2018-12-07T02:58:25.821Z,100867.28
2018-12-07T02:59:02.724Z,100864.77
2018-12-07T02:59:45.770Z,100867.72
2018-12-07T03:00:22.696Z,100858.98
2018-12-07T03:00:59.710Z,100859.97
2018-12-07T03:01:36.526Z,100860.99
2018-12-07T03:02:15.291Z,100860.69
2018-12-07T03:02:52.086Z,100859.27
2018-12-07T03:03:29.024Z,100862.47
2018-12-07T03:04:07.056Z,100862.23
2018-12-07T03:04:43.888Z,100866.79
2018-12-07T03:05:20.979Z,100862.97
2018-12-07T03:05:57.841Z,100860.75
2018-12-07T03:06:34.761Z,100860.20
2018-12-07T03:07:11.730Z,100856.69
2018-12-07T03:07:48.651Z,100855.33
2018-12-07T03:08:26.485Z,100852.56
2018-12-07T03:09:03.425Z,100852.31
2018-12-07T03:09:42.629Z,100857.06
2018-12-07T03:10:19.562Z,100854.72
2018-12-07T03:10:56.324Z,100852.25
2018-12-07T03:11:33.267Z,100849.79
2018-12-07T03:12:10.159Z,100852.69
2018-12-07T03:12:47.063Z,100851.30
2018-12-07T03:13:23.945Z,100851.30
2018-12-07T03:14:01.124Z,100850.19
2018-12-07T03:14:38.074Z,100847.72
2018-12-07T03:15:15.396Z,100851.98
2018-12-07T03:15:52.300Z,100849.08
2018-12-07T03:16:29.223Z,100847.48
2018-12-07T03:17:06.569Z,100850.44
2018-12-07T03:17:44.625Z,100849.08
2018-12-07T03:18:32.191Z,100844.15
2018-12-07T03:19:08.998Z,100848.22
2018-12-07T03:19:45.913Z,100845.26
2018-12-07T03:20:22.902Z,100847.11
2018-12-07T03:20:59.967Z,100847.97
2018-12-07T03:21:36.854Z,100851.17
2018-12-07T03:22:13.794Z,100853.27
2018-12-07T03:22:50.717Z,100852.44
2018-12-07T03:23:27.698Z,100848.86
2018-12-07T03:24:04.501Z,100856.13
2018-12-07T03:24:41.406Z,100855.27
2018-12-07T03:25:18.318Z,100855.77
2018-12-07T03:25:55.976Z,100849.23
2018-12-07T03:26:32.859Z,100854.62
2018-12-07T03:27:09.889Z,100852.95
2018-12-07T03:27:46.817Z,100853.45
2018-12-07T03:28:24.569Z,100856.16
2018-12-07T03:29:01.508Z,100856.02
2018-12-07T03:29:38.413Z,100854.05
2018-12-07T03:30:16.125Z,100856.14
2018-12-07T03:30:54.749Z,100858.23
2018-12-07T03:31:31.761Z,100857.67
2018-12-07T03:32:09.872Z,100854.41
2018-12-07T03:32:46.710Z,100853.92
2018-12-07T03:33:23.766Z,100851.76
2018-12-07T03:34:02.283Z,100853.36
2018-12-07T03:34:39.410Z,100854.97
2018-12-07T03:35:16.216Z,100851.94
2018-12-07T03:35:53.092Z,100852.98
2018-12-07T03:36:29.945Z,100849.19
2018-12-07T03:37:06.836Z,100846.76
2018-12-07T03:37:43.614Z,100848.92
2018-12-07T03:38:20.432Z,100845.67
2018-12-07T03:39:00.083Z,100849.99
2018-12-07T03:39:36.921Z,100845.36
2018-12-07T03:40:13.759Z,100844.19
2018-12-07T03:40:50.473Z,100850.97
2018-12-07T03:41:27.395Z,100840.36
2018-12-07T03:42:04.374Z,100834.63
2018-12-07T03:42:41.189Z,100841.47
2018-12-07T03:43:18.132Z,100839.25
2018-12-07T03:43:55.181Z,100843.49
2018-12-07T03:44:32.102Z,100842.62
2018-12-07T03:45:09.852Z,100834.80
2018-12-07T03:45:46.798Z,100833.92
2018-12-07T03:46:23.632Z,100830.59
2018-12-07T03:47:00.630Z,100830.34
2018-12-07T03:47:37.589Z,100837.86
2018-12-07T03:48:14.397Z,100836.27
2018-12-07T03:48:51.281Z,100827.08
2018-12-07T03:49:28.991Z,100831.77
2018-12-07T03:50:05.972Z,100837.27
2018-12-07T03:50:42.779Z,100834.93
2018-12-07T03:51:19.654Z,100833.09
2018-12-07T03:51:57.406Z,100833.33
2018-12-07T03:52:34.444Z,100832.11
2018-12-07T03:53:11.412Z,100833.70
2018-12-07T03:53:48.357Z,100826.92
2018-12-07T03:54:25.178Z,100829.13
2018-12-07T03:55:02.083Z,100825.92
2018-12-07T03:55:38.962Z,100831.25
2018-12-07T03:56:15.779Z,100830.88
2018-12-07T03:56:53.629Z,100828.16
2018-12-07T03:57:30.703Z,100828.52
2018-12-07T03:58:07.502Z,100829.50
2018-12-07T03:58:44.452Z,100824.56
2018-12-07T03:59:21.243Z,100827.17
2018-12-07T03:59:58.140Z,100824.49
2018-12-07T04:00:34.888Z,100826.41
2018-12-07T04:01:12.728Z,100829.64
2018-12-07T04:01:49.796Z,100830.37
2018-12-07T04:02:26.719Z,100825.68
2018-12-07T04:03:03.755Z,100826.17
2018-12-07T04:03:41.888Z,100828.88
2018-12-07T04:04:19.345Z,100828.39
2018-12-07T04:04:56.148Z,100830.23
2018-12-07T04:05:33.157Z,100822.83
2018-12-07T04:06:10.480Z,100820.05
2018-12-07T04:06:47.334Z,100821.09
2018-12-07T04:07:24.301Z,100820.73
2018-12-07T04:08:03.896Z,100822.05
2018-12-07T04:08:40.977Z,100825.74
2018-12-07T04:09:18.804Z,100824.88
2018-12-07T04:09:55.838Z,100823.44
2018-12-07T04:10:32.896Z,100825.60
2018-12-07T04:11:09.984Z,100825.36
2018-12-07T04:11:46.884Z,100826.16
2018-12-07T04:12:23.922Z,100826.89
2018-12-07T04:13:00.824Z,100823.30
2018-12-07T04:13:38.024Z,100824.91
2018-12-07T04:14:14.806Z,100825.39
2018-12-07T04:14:51.612Z,100824.27
2018-12-07T04:15:28.612Z,100825.24
2018-12-07T04:16:05.536Z,100827.84
2018-12-07T04:16:42.657Z,100827.53
2018-12-07T04:17:19.550Z,100822.27
2018-12-07T04:17:56.358Z,100819.23
2018-12-07T04:18:33.529Z,100818.44
2018-12-07T04:19:10.406Z,100821.16
2018-12-07T04:19:47.819Z,100819.48
2018-12-07T04:20:24.773Z,100814.53
2018-12-07T04:21:01.686Z,100818.28
2018-12-07T04:21:38.542Z,100820.61
2018-12-07T04:22:15.400Z,100815.42
2018-12-07T04:22:52.360Z,100812.95
2018-12-07T04:23:30.343Z,100814.81
2018-12-07T04:24:07.265Z,100813.14
2018-12-07T04:24:44.132Z,100812.22
2018-12-07T04:25:20.974Z,100814.38
2018-12-07T04:25:57.883Z,100812.47
2018-12-07T04:26:35.865Z,100810.86
2018-12-07T04:27:13.203Z,100809.19
2018-12-07T04:27:50.529Z,100805.67
2018-12-07T04:28:27.609Z,100803.42
2018-12-07T04:29:04.625Z,100802.63
2018-12-07T04:29:41.476Z,100804.78
2018-12-07T04:30:28.706Z,100798.31
2018-12-07T04:31:06.136Z,100802.77
2018-12-07T04:31:42.994Z,100796.30
2018-12-07T04:32:19.837Z,100795.19
2018-12-07T04:32:56.700Z,100790.80
2018-12-07T04:33:33.982Z,100793.51
2018-12-07T04:34:10.895Z,100794.38
2018-12-07T04:34:47.309Z,100793.02
2018-12-07T04:35:24.253Z,100786.80
2018-12-07T04:36:07.338Z,100792.23
2018-12-07T04:36:40.154Z,100793.51
2018-12-07T04:37:17.035Z,100789.44
2018-12-07T04:37:54.001Z,100797.51
2018-12-07T04:38:30.754Z,100788.80
2018-12-07T04:39:09.184Z,100788.56
2018-12-07T04:39:46.110Z,100784.09
2018-12-07T04:40:23.190Z,100779.70
2018-12-07T04:41:00.085Z,100782.83
2018-12-07T04:41:37.087Z,100783.06
2018-12-07T04:42:13.899Z,100776.28
2018-12-07T04:42:51.142Z,100771.59
2018-12-07T04:43:27.991Z,100774.31
2018-12-07T04:44:04.924Z,100766.72
2018-12-07T04:44:41.861Z,100766.91
2018-12-07T04:45:18.755Z,100769.63
2018-12-07T04:45:56.514Z,100771.03
2018-12-07T04:46:33.309Z,100771.59
2018-12-07T04:47:10.156Z,100771.84
2018-12-07T04:47:47.057Z,100765.61
2018-12-07T04:48:23.943Z,100773.47
2018-12-07T04:49:00.746Z,100769.31
2018-12-07T04:49:38.834Z,100767.64
2018-12-07T04:50:15.791Z,100771.23
2018-12-07T04:50:53.179Z,100765.92
2018-12-07T04:51:30.147Z,100768.13
2018-12-07T04:52:07.505Z,100768.95
2018-12-07T04:52:44.376Z,100763.57
2018-12-07T04:53:21.478Z,100755.25
2018-12-07T04:53:58.446Z,100761.31
2018-12-07T04:54:35.515Z,100753.65
2018-12-07T04:55:12.500Z,100754.77
2018-12-07T04:55:49.446Z,100753.97
2018-12-07T04:56:26.306Z,100752.77
2018-12-07T04:57:03.706Z,100749.42
2018-12-07T04:57:41.134Z,100751.27
2018-12-07T04:58:18.277Z,100752.14
2018-12-07T04:58:55.261Z,100750.14
2018-12-07T04:59:32.328Z,100751.50
2018-12-07T05:00:10.173Z,100750.06
2018-12-07T05:00:47.390Z,100750.87
2018-12-07T05:01:24.203Z,100750.87
2018-12-07T05:02:02.555Z,100753.58
2018-12-07T05:02:39.468Z,100754.45
2018-12-07T05:03:17.568Z,100755.50
2018-12-07T05:03:54.481Z,100758.05
2018-12-07T05:04:31.467Z,100753.58
2018-12-07T05:05:08.828Z,100750.30
2018-12-07T05:05:46.779Z,100754.12
2018-12-07T05:06:24.359Z,100757.57
2018-12-07T05:07:02.062Z,100759.41
2018-12-07T05:07:39.458Z,100754.70
2018-12-07T05:08:17.046Z,100754.30
2018-12-07T05:08:53.910Z,100749.51
2018-12-07T05:09:30.878Z,100749.11
2018-12-07T05:10:08.455Z,100750.98
2018-12-07T05:10:45.405Z,100750.11
2018-12-07T05:11:22.611Z,100749.06
2018-12-07T05:11:59.616Z,100751.59
2018-12-07T05:12:36.636Z,100744.31
2018-12-07T05:13:13.540Z,100742.64
2018-12-07T05:13:50.298Z,100749.11
2018-12-07T05:14:27.145Z,100749.98
2018-12-07T05:15:04.142Z,100749.51
2018-12-07T05:15:41.124Z,100747.03
2018-12-07T05:16:18.069Z,100743.44
2018-12-07T05:16:55.057Z,100738.52
2018-12-07T05:17:32.569Z,100747.75
2018-12-07T05:18:10.614Z,100743.31
2018-12-07T05:18:47.533Z,100743.59
2018-12-07T05:19:24.685Z,100732.95
2018-12-07T05:20:01.741Z,100735.91
2018-12-07T05:20:38.604Z,100733.33
2018-12-07T05:21:16.042Z,100728.74
2018-12-07T05:21:53.318Z,100728.69
2018-12-07T05:22:30.976Z,100726.30
2018-12-07T05:23:08.369Z,100722.09
2018-12-07T05:23:45.874Z,100728.00
2018-12-07T05:24:23.345Z,100724.41
2018-12-07T05:25:01.304Z,100719.61
2018-12-07T05:25:39.247Z,100715.78
2018-12-07T05:26:16.201Z,100716.02
2018-12-07T05:26:53.352Z,100714.19
2018-12-07T05:27:30.106Z,100711.47
2018-12-07T05:28:07.348Z,100713.30
2018-12-07T05:28:44.343Z,100709.79
2018-12-07T05:29:21.712Z,100708.11
2018-12-07T05:29:58.557Z,100706.19
2018-12-07T05:30:35.589Z,100703.55
2018-12-07T05:31:12.843Z,100703.00
2018-12-07T05:31:49.745Z,100700.52
2018-12-07T05:32:26.553Z,100691.57
2018-12-07T05:33:03.376Z,100688.85
2018-12-07T05:33:40.212Z,100690.21
2018-12-07T05:34:17.079Z,100689.33
2018-12-07T05:34:53.937Z,100689.09
2018-12-07T05:35:30.964Z,100684.99
2018-12-07T05:36:07.980Z,100687.95
2018-12-07T05:36:44.886Z,100691.78
2018-12-07T05:37:21.752Z,100682.99
2018-12-07T05:37:58.620Z,100680.27
2018-12-07T05:38:35.589Z,100684.11
2018-12-07T05:39:12.426Z,100682.46
2018-12-07T05:39:49.341Z,100677.51
2018-12-07T05:40:26.234Z,100675.16
2018-12-07T05:41:03.242Z,100671.70
2018-12-07T05:41:40.072Z,100670.84
2018-12-07T05:42:17.044Z,100671.09
2018-12-07T05:42:53.934Z,100665.89
2018-12-07T05:43:30.847Z,100664.80
2018-12-07T05:44:07.744Z,100663.36
2018-12-07T05:44:44.655Z,100660.41
2018-12-07T05:45:22.144Z,100657.13
2018-12-07T05:45:58.959Z,100659.80
2018-12-07T05:46:35.925Z,100657.80
2018-12-07T05:47:13.777Z,100656.44
2018-12-07T05:47:50.632Z,100649.89
2018-12-07T05:48:27.483Z,100655.88
2018-12-07T05:49:04.309Z,100650.29
2018-12-07T05:49:41.206Z,100650.94
2018-12-07T05:50:18.048Z,100651.65
2018-12-07T05:50:54.956Z,100653.01
2018-12-07T05:51:31.695Z,100650.53
2018-12-07T05:52:11.506Z,100647.02
2018-12-07T05:52:48.444Z,100642.39
2018-12-07T05:53:25.476Z,100639.19
2018-12-07T05:54:02.421Z,100641.59
2018-12-07T05:54:40.221Z,100634.95
2018-12-07T05:55:17.145Z,100629.84
2018-12-07T05:55:53.929Z,100627.84
2018-12-07T05:56:30.685Z,100623.45
2018-12-07T05:57:07.477Z,100620.82
2018-12-07T05:57:44.422Z,100624.02
2018-12-07T05:58:21.241Z,100621.94
2018-12-07T05:58:58.108Z,100622.50
2018-12-07T05:59:34.830Z,100622.42
2018-12-07T06:00:12.936Z,100617.22
2018-12-07T06:00:49.933Z,100617.70
2018-12-07T06:01:26.690Z,100617.30
2018-12-07T06:02:03.828Z,100621.61
2018-12-07T06:02:41.292Z,100619.61
2018-12-07T06:03:18.280Z,100620.36
2018-12-07T06:03:55.218Z,100617.38
2018-12-07T06:04:32.173Z,100614.18
2018-12-07T06:05:10.006Z,100610.42
2018-12-07T06:05:46.859Z,100611.70
2018-12-07T06:06:23.620Z,100608.03
2018-12-07T06:07:00.521Z,100607.47
2018-12-07T06:07:37.291Z,100610.75
2018-12-07T06:08:14.088Z,100609.63
2018-12-07T06:08:50.849Z,100614.58
2018-12-07T06:09:27.603Z,100607.31
2018-12-07T06:10:04.439Z,100607.55
2018-12-07T06:10:41.471Z,100607.55
2018-12-07T06:11:23.775Z,100606.76
2018-12-07T06:12:00.687Z,100605.64
2018-12-07T06:12:37.535Z,100604.84
2018-12-07T06:13:14.419Z,100604.60
2018-12-07T06:13:51.187Z,100604.20
2018-12-07T06:14:28.911Z,100603.48
2018-12-07T06:15:06.739Z,100604.52
2018-12-07T06:15:44.616Z,100601.88
2018-12-07T06:16:21.466Z,100602.53
2018-12-07T06:16:59.340Z,100603.48
2018-12-07T06:17:37.056Z,100596.38
2018-12-07T06:18:13.992Z,100600.93
2018-12-07T06:18:50.905Z,100598.13
2018-12-07T06:19:27.672Z,100600.05
2018-12-07T06:20:04.806Z,100595.09
2018-12-07T06:21:51.014Z,100586.54
2018-12-07T06:22:27.931Z,100586.30
2018-12-07T06:23:04.820Z,100580.88
2018-12-07T06:23:41.627Z,100579.59
2018-12-07T06:24:19.463Z,100575.61
2018-12-07T06:24:56.264Z,100571.53
2018-12-07T06:25:33.129Z,100576.64
2018-12-07T06:26:10.011Z,100572.72
2018-12-07T06:26:46.949Z,100572.64
2018-12-07T06:27:23.902Z,100571.12
2018-12-07T06:28:00.713Z,100568.17
2018-12-07T06:28:37.583Z,100558.67
2018-12-07T06:29:14.395Z,100565.55
2018-12-07T06:29:51.267Z,100567.55
2018-12-07T06:30:28.945Z,100566.59
2018-12-07T06:31:05.953Z,100558.77
2018-12-07T06:31:42.806Z,100561.16
2018-12-07T06:32:19.664Z,100558.45
2018-12-07T06:33:00.279Z,100558.04
2018-12-07T06:33:37.035Z,100551.73
2018-12-07T06:34:13.827Z,100548.55
2018-12-07T06:34:50.598Z,100553.55
2018-12-07T06:36:35.081Z,100543.81
2018-12-07T06:37:11.995Z,100543.02
2018-12-07T06:37:48.767Z,100540.06
2018-12-07T06:38:25.924Z,100536.63
2018-12-07T06:39:02.744Z,100540.47
2018-12-07T06:39:39.647Z,100536.95
2018-12-07T06:40:16.546Z,100532.80
2018-12-07T06:40:53.504Z,100532.16
2018-12-07T06:41:30.431Z,100530.72
2018-12-07T06:42:07.352Z,100523.53
2018-12-07T06:42:44.259Z,100524.33
2018-12-07T06:43:21.290Z,100523.12
2018-12-07T06:43:59.276Z,100514.66
2018-12-07T06:44:37.129Z,100516.58
2018-12-07T06:45:14.011Z,100513.62
2018-12-07T06:45:50.959Z,100512.74
2018-12-07T06:46:27.708Z,100510.83
2018-12-07T06:47:04.682Z,100511.01
2018-12-07T06:47:41.553Z,100506.70
2018-12-07T06:48:18.355Z,100507.31
2018-12-07T06:49:13.935Z,100511.25
2018-12-07T06:49:50.700Z,100504.31
2018-12-07T06:50:27.676Z,100498.93
2018-12-07T06:51:04.637Z,100501.33
2018-12-07T06:51:55.523Z,100495.09
2018-12-07T06:52:32.433Z,100492.88
2018-12-07T06:53:09.272Z,100495.03
2018-12-07T06:53:46.595Z,100493.20
2018-12-07T06:54:23.479Z,100491.05
2018-12-07T06:55:00.373Z,100486.41
2018-12-07T06:55:37.203Z,100487.13
2018-12-07T06:56:14.089Z,100487.83
2018-12-07T06:56:51.657Z,100487.59
2018-12-07T06:57:28.523Z,100485.44
2018-12-07T06:58:06.524Z,100484.00
2018-12-07T06:58:44.955Z,100481.52
2018-12-07T06:59:21.962Z,100482.82
2018-12-07T06:59:58.792Z,100482.50
2018-12-07T07:00:36.549Z,100482.73
2018-12-07T07:01:13.404Z,100490.80
2018-12-07T07:01:50.220Z,100488.17
2018-12-07T07:02:28.161Z,100481.30
2018-12-07T07:03:06.180Z,100475.30
2018-12-07T07:03:43.157Z,100483.45
2018-12-07T07:04:20.085Z,100481.20
2018-12-07T07:04:56.874Z,100477.13
2018-12-07T07:05:33.691Z,100473.86
2018-12-07T07:06:10.633Z,100476.57
2018-12-07T07:06:47.500Z,100475.36
2018-12-07T07:07:24.276Z,100476.72
2018-12-07T07:08:01.199Z,100481.74
2018-12-07T07:08:39.112Z,100476.95